createdAt,value
2019-01-12T00:01:45.107Z,100857.86
2019-01-12T00:04:14.152Z,100854.51
2019-01-12T00:06:43.091Z,100856.32
2019-01-12T00:09:12.353Z,100854.86
2019-01-12T00:11:40.835Z,100855.08
2019-01-12T00:14:09.186Z,100860.19
2019-01-12T00:16:37.508Z,100858.56
2019-01-12T00:19:05.879Z,100855.29
2019-01-12T00:21:34.208Z,100850.69
2019-01-12T00:24:02.583Z,100853.13
2019-01-12T00:26:30.925Z,100841.43
2019-01-12T00:28:59.320Z,100847.95
2019-01-12T00:31:27.670Z,100841.27
2019-01-12T00:33:56.489Z,100837.45
2019-01-12T00:36:24.885Z,100834.80
2019-01-12T00:38:54.232Z,100836.69
2019-01-12T00:41:23.583Z,100841.99
2019-01-12T00:43:52.882Z,100837.80
2019-01-12T00:46:22.285Z,100853.36
2019-01-12T00:48:50.929Z,100854.25
2019-01-12T00:51:19.397Z,100857.61
2019-01-12T00:53:47.714Z,100853.41
2019-01-12T00:56:16.732Z,100858.86
2019-01-12T00:58:45.084Z,100859.41
2019-01-12T01:01:13.696Z,100859.12
2019-01-12T01:03:42.300Z,100862.34
2019-01-12T01:06:10.708Z,100866.73
2019-01-12T01:08:39.105Z,100863.81
2019-01-12T01:11:07.516Z,100866.03
2019-01-12T01:13:35.915Z,100864.49
2019-01-12T01:16:04.749Z,100862.33
2019-01-12T01:18:33.110Z,100870.63
2019-01-12T01:21:02.303Z,100871.18
2019-01-12T01:23:30.900Z,100874.53
2019-01-12T01:25:59.284Z,100876.63
2019-01-12T01:28:27.605Z,100877.21
2019-01-12T01:30:56.076Z,100873.56
2019-01-12T01:33:28.072Z,100879.48
2019-01-12T01:35:54.794Z,100877.62
2019-01-12T01:38:23.157Z,100885.06
2019-01-12T01:40:51.624Z,100884.17
2019-01-12T01:43:21.697Z,100884.81
2019-01-12T01:45:51.058Z,100884.44
2019-01-12T01:48:20.874Z,100880.81
2019-01-12T01:50:49.521Z,100891.39
2019-01-12T01:53:18.794Z,100891.88
2019-01-12T01:55:47.259Z,100890.02
2019-01-12T01:58:15.962Z,100885.86
2019-01-12T02:00:44.547Z,100882.50
2019-01-12T02:03:14.015Z,100881.20
2019-01-12T02:05:42.394Z,100882.30
2019-01-12T02:08:10.729Z,100882.62
2019-01-12T02:10:39.138Z,100879.96
2019-01-12T02:13:07.472Z,100880.97
2019-01-12T02:15:35.801Z,100885.37
2019-01-12T02:18:04.496Z,100877.68
2019-01-12T02:20:32.818Z,100878.31
2019-01-12T02:23:01.182Z,100875.59
2019-01-12T02:25:29.506Z,100879.40
2019-01-12T02:27:57.849Z,100878.31
2019-01-12T02:30:26.260Z,100868.16
2019-01-12T02:32:54.631Z,100875.03
2019-01-12T02:35:23.298Z,100874.97
2019-01-12T02:37:51.762Z,100875.45
2019-01-12T02:40:20.107Z,100880.59
2019-01-12T02:42:48.456Z,100875.66
2019-01-12T02:45:17.550Z,100870.53
2019-01-12T02:47:45.891Z,100868.57
2019-01-12T02:50:14.849Z,100872.02
2019-01-12T02:52:43.200Z,100869.51
2019-01-12T02:55:11.664Z,100865.92
2019-01-12T02:57:40.244Z,100871.61
2019-01-12T03:00:13.329Z,100870.63
2019-01-12T03:02:41.717Z,100866.20
2019-01-12T03:05:10.205Z,100861.52
2019-01-12T03:07:38.627Z,100856.06
2019-01-12T03:10:09.995Z,100862.36
2019-01-12T03:12:38.415Z,100860.99
2019-01-12T03:15:10.234Z,100868.81
2019-01-12T03:17:38.584Z,100869.80
2019-01-12T03:20:11.257Z,100868.42
2019-01-12T03:22:39.606Z,100872.52
2019-01-12T03:25:08.177Z,100872.62
2019-01-12T03:27:36.639Z,100868.95
2019-01-12T03:30:08.637Z,100860.92
2019-01-12T03:32:37.080Z,100864.25
2019-01-12T03:35:06.071Z,100857.95
2019-01-12T03:37:34.442Z,100853.10
2019-01-12T03:40:03.902Z,100856.10
2019-01-12T03:42:32.268Z,100858.02
2019-01-12T03:45:00.578Z,100859.11
2019-01-12T03:47:28.955Z,100859.39
2019-01-12T03:49:57.285Z,100855.51
2019-01-12T03:52:25.617Z,100864.05
2019-01-12T03:54:53.956Z,100861.72
2019-01-12T03:57:22.270Z,100860.81
2019-01-12T03:59:50.621Z,100855.05
2019-01-12T04:02:19.004Z,100855.69
2019-01-12T04:04:47.325Z,100851.73
2019-01-12T04:07:16.122Z,100857.19
2019-01-12T04:09:44.562Z,100849.36
2019-01-12T04:12:13.291Z,100844.02
2019-01-12T04:14:41.692Z,100838.12
2019-01-12T04:17:10.005Z,100832.64
2019-01-12T04:19:38.350Z,100838.89
2019-01-12T04:22:06.714Z,100834.52
2019-01-12T04:24:35.067Z,100835.74
2019-01-12T04:27:03.409Z,100832.48
2019-01-12T04:29:31.780Z,100825.16
2019-01-12T04:32:00.128Z,100826.69
2019-01-12T04:34:28.492Z,100829.84
2019-01-12T04:36:56.833Z,100824.57
2019-01-12T04:39:25.272Z,100827.70
2019-01-12T04:41:53.669Z,100819.61
2019-01-12T04:44:22.020Z,100817.48
2019-01-12T04:46:50.374Z,100824.13
2019-01-12T04:49:18.675Z,100815.51
2019-01-12T04:51:47.023Z,100815.02
2019-01-12T04:54:15.631Z,100811.60
2019-01-12T04:56:43.954Z,100817.75
2019-01-12T04:59:12.524Z,100814.67
2019-01-12T05:01:40.826Z,100822.36
2019-01-12T05:04:09.191Z,100821.17
2019-01-12T05:06:37.504Z,100809.70
2019-01-12T05:09:07.103Z,100810.98
2019-01-12T05:11:35.440Z,100809.98
2019-01-12T05:14:03.926Z,100808.66
2019-01-12T05:16:32.278Z,100807.00
2019-01-12T05:19:00.602Z,100810.69
2019-01-12T05:21:28.936Z,100809.36
2019-01-12T05:23:57.278Z,100809.09
2019-01-12T05:26:25.624Z,100815.30
2019-01-12T05:28:54.583Z,100822.61
2019-01-12T05:31:22.933Z,100819.84
2019-01-12T05:33:51.267Z,100817.28
2019-01-12T05:36:19.622Z,100818.47
2019-01-12T05:38:48.029Z,100812.34
2019-01-12T05:41:16.445Z,100813.73
2019-01-12T05:43:44.783Z,100808.20
2019-01-12T05:46:14.022Z,100811.86
2019-01-12T05:48:42.327Z,100807.52
2019-01-12T05:51:10.681Z,100822.47
2019-01-12T05:53:39.024Z,100822.66
2019-01-12T05:56:07.373Z,100823.37
2019-01-12T05:58:35.708Z,100823.39
2019-01-12T06:01:04.267Z,100821.02
2019-01-12T06:03:32.611Z,100822.55
2019-01-12T06:06:00.947Z,100828.47
2019-01-12T06:08:29.290Z,100831.27
2019-01-12T06:10:57.860Z,100830.64
2019-01-12T06:13:26.236Z,100835.28
2019-01-12T06:15:54.582Z,100832.64
2019-01-12T06:18:22.975Z,100830.59
2019-01-12T06:20:51.370Z,100832.49
2019-01-12T06:23:19.708Z,100829.84
2019-01-12T06:25:48.030Z,100828.42
2019-01-12T06:28:16.644Z,100829.48
2019-01-12T06:30:44.958Z,100827.09
2019-01-12T06:33:13.745Z,100826.59
2019-01-12T06:35:42.178Z,100827.03
2019-01-12T06:38:10.508Z,100838.66
2019-01-12T06:40:38.839Z,100834.66
2019-01-12T06:43:07.186Z,100827.19
2019-01-12T06:45:35.516Z,100828.22
2019-01-12T06:48:03.943Z,100828.57
2019-01-12T06:50:32.265Z,100832.00
2019-01-12T06:53:00.617Z,100829.06
2019-01-12T06:55:28.993Z,100825.27
2019-01-12T06:57:57.307Z,100824.03
2019-01-12T07:00:26.138Z,100832.55
2019-01-12T07:02:56.982Z,100833.05
2019-01-12T07:05:25.873Z,100830.83
2019-01-12T07:07:54.213Z,100831.80
2019-01-12T07:10:22.927Z,100834.30
2019-01-12T07:12:52.072Z,100832.41
2019-01-12T07:15:20.430Z,100836.03
2019-01-12T07:17:50.026Z,100839.02
2019-01-12T07:20:18.339Z,100837.23
2019-01-12T07:22:47.091Z,100829.27
2019-01-12T07:25:15.596Z,100828.59
2019-01-12T07:27:44.057Z,100825.73
2019-01-12T07:30:15.891Z,100838.70
2019-01-12T07:32:44.254Z,100831.23
2019-01-12T07:35:12.886Z,100827.92
2019-01-12T07:37:41.362Z,100831.97
2019-01-12T07:40:10.405Z,100835.14
2019-01-12T07:42:38.746Z,100836.04
2019-01-12T07:45:09.992Z,100834.87
2019-01-12T07:47:39.078Z,100841.91
2019-01-12T07:50:10.831Z,100847.95
2019-01-12T07:52:39.619Z,100836.74
2019-01-12T07:55:09.052Z,100834.77
2019-01-12T07:57:37.571Z,100841.84
2019-01-12T08:00:11.329Z,100839.88
2019-01-12T08:02:39.807Z,100843.23
2019-01-12T08:05:10.011Z,100847.70
2019-01-12T08:07:40.534Z,100841.34
2019-01-12T08:10:12.540Z,100841.47
2019-01-12T08:12:41.040Z,100834.73
2019-01-12T08:15:11.088Z,100837.06
2019-01-12T08:17:39.467Z,100827.27
2019-01-12T08:20:10.906Z,100825.89
2019-01-12T08:22:39.355Z,100819.43
2019-01-12T08:25:09.546Z,100807.66
2019-01-12T08:27:38.051Z,100814.58
2019-01-12T08:30:12.315Z,100806.99
2019-01-12T08:32:40.696Z,100814.11
2019-01-12T08:35:09.520Z,100816.05
2019-01-12T08:37:37.837Z,100814.73
2019-01-12T08:40:08.027Z,100816.86
2019-01-12T08:42:36.323Z,100814.61
2019-01-12T08:45:06.607Z,100814.91
2019-01-12T08:47:34.949Z,100813.03
2019-01-12T08:50:05.253Z,100808.32
2019-01-12T08:52:33.572Z,100811.81
2019-01-12T08:55:01.898Z,100812.47
2019-01-12T08:57:30.227Z,100815.72
2019-01-12T08:59:58.565Z,100814.23
2019-01-12T09:02:26.898Z,100811.91
2019-01-12T09:04:55.260Z,100798.56
2019-01-12T09:07:23.607Z,100800.91
2019-01-12T09:09:51.932Z,100806.21
2019-01-12T09:12:20.281Z,100803.77
2019-01-12T09:14:48.656Z,100798.78
2019-01-12T09:17:17.185Z,100789.45
2019-01-12T09:19:45.509Z,100790.97
2019-01-12T09:22:13.864Z,100789.18
2019-01-12T09:24:42.182Z,100773.70
2019-01-12T09:27:10.561Z,100784.69
2019-01-12T09:29:40.318Z,100780.09
2019-01-12T09:32:09.590Z,100782.53
2019-01-12T09:34:37.976Z,100772.95
2019-01-12T09:37:06.375Z,100762.43
2019-01-12T09:39:34.699Z,100757.12
2019-01-12T09:42:03.055Z,100752.72
2019-01-12T09:44:31.365Z,100757.05
2019-01-12T09:46:59.715Z,100749.17
2019-01-12T09:49:28.038Z,100755.89
2019-01-12T09:51:56.389Z,100766.36
2019-01-12T09:54:24.740Z,100758.78
2019-01-12T09:56:53.078Z,100760.38
2019-01-12T09:59:21.382Z,100752.88
2019-01-12T10:01:49.839Z,100743.39
2019-01-12T10:04:19.318Z,100744.44
2019-01-12T10:06:47.685Z,100732.07
2019-01-12T10:09:15.994Z,100724.58
2019-01-12T10:11:44.356Z,100722.30
2019-01-12T10:14:12.673Z,100736.37
2019-01-12T10:16:41.000Z,100737.55
2019-01-12T10:19:09.538Z,100739.28
2019-01-12T10:21:37.968Z,100748.28
2019-01-12T10:24:06.293Z,100741.87
2019-01-12T10:26:34.682Z,100729.03
2019-01-12T10:29:03.056Z,100712.13
2019-01-12T10:31:31.386Z,100698.13
2019-01-12T10:33:59.800Z,100704.49
2019-01-12T10:36:28.172Z,100683.66
2019-01-12T10:38:56.520Z,100681.22
2019-01-12T10:41:24.921Z,100690.92
2019-01-12T10:43:53.291Z,100683.83
2019-01-12T10:46:21.681Z,100681.07
2019-01-12T10:48:50.091Z,100675.74
2019-01-12T10:51:18.473Z,100680.89
2019-01-12T10:53:46.813Z,100670.92
2019-01-12T10:56:15.113Z,100665.72
2019-01-12T10:58:43.539Z,100661.56
2019-01-12T11:01:13.156Z,100656.83
2019-01-12T11:03:42.404Z,100650.36
2019-01-12T11:06:12.003Z,100641.08
2019-01-12T11:08:41.047Z,100633.09
2019-01-12T11:11:11.234Z,100635.07
2019-01-12T11:13:40.138Z,100633.52
2019-01-12T11:16:10.203Z,100635.69
2019-01-12T11:18:38.641Z,100640.34
2019-01-12T11:21:07.277Z,100637.37
2019-01-12T11:23:35.674Z,100634.09
2019-01-12T11:26:04.093Z,100617.98
2019-01-12T11:28:32.426Z,100618.20
2019-01-12T11:31:00.790Z,100609.70
2019-01-12T11:33:29.127Z,100602.38
2019-01-12T11:35:57.564Z,100601.28
2019-01-12T11:38:26.002Z,100595.83
2019-01-12T11:40:54.336Z,100580.95
2019-01-12T11:43:22.689Z,100559.94
2019-01-12T11:45:51.048Z,100554.44
2019-01-12T11:48:19.391Z,100560.39
2019-01-12T11:50:47.739Z,100552.02
2019-01-12T11:53:16.102Z,100564.50
2019-01-12T11:55:44.535Z,100572.43
2019-01-12T12:00:40.434Z,100564.68
2019-01-12T12:03:08.843Z,100556.14
2019-01-12T12:05:37.190Z,100551.36
2019-01-12T12:08:05.660Z,100560.94
2019-01-12T12:10:34.183Z,100555.77
2019-01-12T12:13:02.552Z,100529.39
2019-01-12T12:15:31.014Z,100527.73
2019-01-12T12:17:59.382Z,100533.91
2019-01-12T12:20:27.993Z,100526.56
2019-01-12T12:22:56.516Z,100525.91
2019-01-12T12:25:24.903Z,100511.08
2019-01-12T12:27:53.355Z,100508.03
2019-01-12T12:30:25.042Z,100495.66
2019-01-12T12:32:53.508Z,100490.33
2019-01-12T12:35:21.892Z,100491.00
2019-01-12T12:37:50.463Z,100483.64
2019-01-12T12:40:20.725Z,100479.52
2019-01-12T12:42:49.143Z,100469.26
2019-01-12T12:45:19.956Z,100460.83
2019-01-12T12:47:48.443Z,100453.82
2019-01-12T12:50:17.127Z,100448.49
2019-01-12T12:52:45.758Z,100446.72
2019-01-12T12:55:16.501Z,100436.30
2019-01-12T12:57:44.922Z,100431.69
2019-01-12T13:00:15.103Z,100424.15
2019-01-12T13:02:43.594Z,100418.21
2019-01-12T13:05:12.174Z,100415.81
2019-01-12T13:07:40.577Z,100420.53
2019-01-12T13:10:11.922Z,100420.41
2019-01-12T13:12:40.370Z,100420.58
2019-01-12T13:15:10.696Z,100408.06
2019-01-12T13:17:39.248Z,100398.51
2019-01-12T13:20:10.920Z,100396.19
2019-01-12T13:22:39.558Z,100387.65
2019-01-12T13:25:09.245Z,100372.67
2019-01-12T13:27:39.949Z,100378.21
2019-01-12T13:30:13.600Z,100379.61
2019-01-12T13:32:42.069Z,100370.13
2019-01-12T13:35:11.469Z,100367.58
2019-01-12T13:37:39.837Z,100360.53
2019-01-12T13:40:10.710Z,100361.15
2019-01-12T13:42:39.101Z,100348.42
2019-01-12T13:45:11.082Z,100335.61
2019-01-12T13:47:40.448Z,100333.28
2019-01-12T13:50:10.884Z,100334.40
2019-01-12T13:52:39.240Z,100305.11
2019-01-12T13:55:11.270Z,100318.27
2019-01-12T13:57:47.091Z,100321.92
2019-01-12T14:00:15.102Z,100315.77
2019-01-12T14:02:43.524Z,100317.05
2019-01-12T14:05:12.672Z,100315.55
2019-01-12T14:07:40.998Z,100323.33
2019-01-12T14:10:13.124Z,100317.12
2019-01-12T14:12:41.498Z,100315.22
2019-01-12T14:15:12.189Z,100300.70
2019-01-12T14:17:40.588Z,100302.61
2019-01-12T14:20:14.088Z,100297.69
2019-01-12T14:22:42.496Z,100293.86
2019-01-12T14:25:11.516Z,100282.93
2019-01-12T14:27:39.851Z,100285.27
2019-01-12T14:30:15.651Z,100281.89
2019-01-12T14:32:43.306Z,100268.53
2019-01-12T14:35:13.813Z,100266.36
2019-01-12T14:37:42.358Z,100265.66
2019-01-12T14:40:13.643Z,100257.49
2019-01-12T14:42:42.049Z,100254.33
2019-01-12T14:45:14.965Z,100253.30
2019-01-12T14:47:43.454Z,100238.16
2019-01-12T14:50:12.344Z,100247.06
2019-01-12T14:52:40.724Z,100248.35
2019-01-12T14:55:12.230Z,100234.55
2019-01-12T14:57:40.652Z,100225.53
2019-01-12T15:00:13.612Z,100232.02
2019-01-12T15:02:42.111Z,100233.06
2019-01-12T15:05:11.986Z,100231.19
2019-01-12T15:07:40.502Z,100226.78
2019-01-12T15:10:11.579Z,100230.94
2019-01-12T15:12:39.961Z,100220.91
2019-01-12T15:15:11.527Z,100217.43
2019-01-12T15:17:39.957Z,100218.20
2019-01-12T15:20:12.305Z,100210.91
2019-01-12T15:22:40.682Z,100208.16
2019-01-12T15:25:11.314Z,100214.14
2019-01-12T15:27:39.686Z,100205.12
2019-01-12T15:30:12.400Z,100206.56
2019-01-12T15:32:40.786Z,100200.25
2019-01-12T15:35:10.722Z,100199.27
2019-01-12T15:37:39.015Z,100199.22
2019-01-12T15:40:11.238Z,100201.58
2019-01-12T15:42:39.568Z,100187.41
2019-01-12T15:45:10.782Z,100170.30
2019-01-12T15:47:39.113Z,100177.44
2019-01-12T15:50:11.628Z,100179.93
2019-01-12T15:52:40.057Z,100175.16
2019-01-12T15:55:08.639Z,100181.97
2019-01-12T15:57:40.005Z,100179.84
2019-01-12T16:00:13.170Z,100180.34
2019-01-12T16:02:41.972Z,100181.14
2019-01-12T16:05:11.767Z,100175.52
2019-01-12T16:07:40.165Z,100182.97
2019-01-12T16:10:09.910Z,100171.66
2019-01-12T16:12:38.353Z,100179.64
2019-01-12T16:15:11.429Z,100182.17
2019-01-12T16:17:42.164Z,100184.95
2019-01-12T16:20:14.556Z,100177.98
2019-01-12T16:22:42.932Z,100178.64
2019-01-12T16:25:12.079Z,100171.37
2019-01-12T16:27:40.564Z,100160.89
2019-01-12T16:30:12.426Z,100170.66
2019-01-12T16:32:40.923Z,100169.83
2019-01-12T16:35:09.906Z,100169.45
2019-01-12T16:37:38.314Z,100166.67
2019-01-12T16:40:12.118Z,100159.36
2019-01-12T16:42:41.030Z,100161.52
2019-01-12T16:45:11.197Z,100156.20
2019-01-12T16:47:40.082Z,100147.89
2019-01-12T16:50:08.692Z,100134.55
2019-01-12T16:52:37.672Z,100123.08
2019-01-12T16:55:08.234Z,100129.73
2019-01-12T16:57:37.191Z,100128.08
2019-01-12T17:00:08.097Z,100123.05
2019-01-12T17:02:36.513Z,100120.34
2019-01-12T17:05:05.535Z,100115.03
2019-01-12T17:07:33.941Z,100108.09
2019-01-12T17:10:02.344Z,100109.55
2019-01-12T17:12:30.706Z,100107.26
2019-01-12T17:14:59.021Z,100103.11
2019-01-12T17:17:27.358Z,100099.28
2019-01-12T17:19:56.285Z,100096.09
2019-01-12T17:22:24.706Z,100087.11
2019-01-12T17:24:53.034Z,100079.14
2019-01-12T17:27:22.034Z,100078.77
2019-01-12T17:29:50.376Z,100074.78
2019-01-12T17:32:18.876Z,100073.12
2019-01-12T17:34:47.413Z,100074.16
2019-01-12T17:37:15.739Z,100064.31
2019-01-12T17:39:44.082Z,100070.66
2019-01-12T17:42:12.728Z,100065.34
2019-01-12T17:44:41.057Z,100065.05
2019-01-12T17:47:09.380Z,100055.91
2019-01-12T17:49:37.742Z,100054.05
2019-01-12T17:52:06.133Z,100052.39
2019-01-12T17:54:35.464Z,100040.59
2019-01-12T17:57:04.580Z,100031.48
2019-01-12T17:59:32.902Z,100039.12
2019-01-12T18:02:01.239Z,100027.82
2019-01-12T18:04:29.554Z,100043.09
2019-01-12T18:06:57.892Z,100049.40
2019-01-12T18:09:26.337Z,100041.05
2019-01-12T18:11:54.662Z,100024.64
2019-01-12T18:14:23.776Z,100027.80
2019-01-12T18:16:52.265Z,100018.12
2019-01-12T18:19:20.600Z,100020.34
2019-01-12T18:21:48.916Z,100007.39
2019-01-12T18:24:17.263Z,100014.34
2019-01-12T18:26:45.584Z,100005.20
2019-01-12T18:29:14.156Z,100000.55
2019-01-12T18:31:42.628Z,100007.36
2019-01-12T18:34:11.023Z,100011.35
2019-01-12T18:36:40.417Z,100021.15
2019-01-12T18:39:08.753Z,100006.70
2019-01-12T18:41:37.075Z,100011.34
2019-01-12T18:44:05.480Z,100004.39
2019-01-12T18:46:34.540Z,99987.42
2019-01-12T18:49:03.058Z,99987.28
2019-01-12T18:51:31.364Z,99996.09
2019-01-12T18:53:59.676Z,99995.06
2019-01-12T18:56:28.016Z,99997.22
2019-01-12T18:58:58.954Z,99993.73
2019-01-12T19:01:26.787Z,99993.08
2019-01-12T19:03:55.102Z,100001.88
2019-01-12T19:06:23.444Z,99993.57
2019-01-12T19:08:51.812Z,99991.58
2019-01-12T19:11:20.169Z,99992.57
2019-01-12T19:13:48.540Z,99994.76
2019-01-12T19:16:16.861Z,99994.92
2019-01-12T19:18:45.179Z,99988.79
2019-01-12T19:21:14.283Z,99993.77
2019-01-12T19:23:42.580Z,99984.11
2019-01-12T19:26:11.038Z,99989.61
2019-01-12T19:28:39.399Z,99993.09
2019-01-12T19:31:07.720Z,99989.12
2019-01-12T19:33:36.039Z,99980.81
2019-01-12T19:36:04.517Z,99986.95
2019-01-12T19:38:32.819Z,99990.12
2019-01-12T19:41:01.221Z,99991.44
2019-01-12T19:43:29.510Z,99993.28
2019-01-12T19:45:57.845Z,99991.94
2019-01-12T19:48:26.200Z,100006.41
2019-01-12T19:50:54.545Z,100009.39
2019-01-12T19:53:22.887Z,100012.41
2019-01-12T19:55:51.214Z,100004.75
2019-01-12T19:58:19.528Z,99989.31
2019-01-12T20:00:47.857Z,99991.62
2019-01-12T20:03:16.169Z,99992.64
2019-01-12T20:05:44.489Z,99989.31
2019-01-12T20:08:12.925Z,99976.83
2019-01-12T20:10:41.339Z,99974.98
2019-01-12T20:13:09.656Z,99967.20
2019-01-12T20:15:37.974Z,99968.00
2019-01-12T20:18:06.380Z,99950.39
2019-01-12T20:20:35.179Z,99950.05
2019-01-12T20:23:03.617Z,99949.23
2019-01-12T20:25:32.032Z,99945.75
2019-01-12T20:28:00.409Z,99933.95
2019-01-12T20:30:36.192Z,99933.28
2019-01-12T20:33:12.409Z,99933.93
2019-01-12T20:35:42.993Z,99924.79
2019-01-12T20:38:15.634Z,99925.95
2019-01-12T20:40:50.516Z,99924.80
2019-01-12T20:43:21.120Z,99920.47
2019-01-12T20:45:53.962Z,99918.64
2019-01-12T20:48:27.903Z,99922.96
2019-01-12T20:51:00.593Z,99916.64
2019-01-12T20:53:32.339Z,99921.28
2019-01-12T20:56:06.903Z,99918.63
2019-01-12T20:58:40.608Z,99917.80
2019-01-12T21:01:13.801Z,99916.46
2019-01-12T21:03:46.657Z,99916.80
2019-01-12T21:06:19.353Z,99921.44
2019-01-12T21:08:52.237Z,99911.64
2019-01-12T21:11:24.972Z,99916.12
2019-01-12T21:13:57.701Z,99916.13
2019-01-12T21:16:27.698Z,99924.59
2019-01-12T21:18:56.384Z,99926.77
2019-01-12T21:21:24.732Z,99918.47
2019-01-12T21:23:53.138Z,99926.11
2019-01-12T21:26:21.469Z,99927.94
2019-01-12T21:28:50.215Z,99916.77
2019-01-12T21:31:18.976Z,99921.27
2019-01-12T21:33:47.341Z,99925.79
2019-01-12T21:36:16.168Z,99927.63
2019-01-12T21:38:44.504Z,99916.13
2019-01-12T21:41:12.839Z,99909.64
2019-01-12T21:43:41.235Z,99921.95
2019-01-12T21:46:09.623Z,99913.63
2019-01-12T21:48:37.900Z,99914.97
2019-01-12T21:51:06.357Z,99910.98
2019-01-12T21:53:34.793Z,99910.63
2019-01-12T21:56:03.343Z,99908.66
2019-01-12T21:58:31.677Z,99905.31
2019-01-12T22:01:00.275Z,99904.80
2019-01-12T22:03:28.605Z,99903.15
2019-01-12T22:05:56.921Z,99899.83
2019-01-12T22:08:25.217Z,99900.34
2019-01-12T22:10:53.631Z,99905.34
2019-01-12T22:13:22.237Z,99898.69
2019-01-12T22:15:50.575Z,99891.19
2019-01-12T22:18:18.876Z,99891.69
2019-01-12T22:20:47.209Z,99890.69
2019-01-12T22:23:15.564Z,99887.70
2019-01-12T22:25:43.901Z,99883.70
2019-01-12T22:28:12.521Z,99881.86
2019-01-12T22:30:40.825Z,99885.34
2019-01-12T22:33:09.158Z,99884.87
2019-01-12T22:35:37.532Z,99889.03
2019-01-12T22:38:06.565Z,99885.52
2019-01-12T22:40:34.962Z,99872.70
2019-01-12T22:43:03.276Z,99873.72
2019-01-12T22:45:31.626Z,99873.55
2019-01-12T22:48:00.023Z,99871.70
2019-01-12T22:50:28.337Z,99864.23
2019-01-12T22:52:56.641Z,99869.73
2019-01-12T22:55:25.288Z,99873.72
2019-01-12T22:57:53.681Z,99859.23
2019-01-12T23:00:25.030Z,99865.88
2019-01-12T23:02:53.506Z,99865.53
2019-01-12T23:05:21.987Z,99865.55
2019-01-12T23:07:50.315Z,99867.34
2019-01-12T23:10:18.658Z,99859.68
2019-01-12T23:12:46.967Z,99862.46
2019-01-12T23:15:16.709Z,99864.98
2019-01-12T23:17:45.129Z,99861.58
2019-01-12T23:20:14.059Z,99862.08
2019-01-12T23:22:42.456Z,99861.43
2019-01-12T23:25:10.909Z,99862.79
2019-01-12T23:27:39.230Z,99864.63
2019-01-12T23:30:14.091Z,99858.53
2019-01-12T23:32:42.394Z,99871.45
2019-01-12T23:35:11.445Z,99866.78
2019-01-12T23:37:39.855Z,99866.97
2019-01-12T23:40:09.321Z,99866.91
2019-01-12T23:42:37.783Z,99866.88
2019-01-12T23:45:08.928Z,99861.76
2019-01-12T23:47:37.282Z,99853.41
2019-01-12T23:50:09.092Z,99851.72
2019-01-12T23:52:37.489Z,99853.05
2019-01-12T23:55:06.146Z,99848.27
2019-01-12T23:57:34.502Z,99844.38
